Laguna de Pozuelos, Argentina
Current Conditions -  °F | °C
As of 7:00 AM on Sunday 23 Nov 2014 (Local Time) from SLTJ Reporting Station
Broken Clouds Broken Clouds  
Wind Chill: 59°   Ceiling: 1800
Heat Index: 59°   Visibility: 6mi
Dew Point: 55°   Wind: 0mph
Humidity: 88%   Direction: NA
Pressure: 30.09"   Gusts: NA
Location:  22.37°S, 66.02°W
Report Text: SLTJ 231000Z 00000KT 9999 FEW002 BKN018 BKN200 15/13 Q1019
Loading
Personal Weather Stations






























Interactive Weather Map New forecast layout! Learn more

10-Day Weather Forecast

Advertisements
Track Severe Weather on mobile